• Join FlightAware (Why Join?)
  • Login
  • US Flag 
10:06AM EDT


 

Airport Tracker/Info


-or-


 

Live Flight TrackerFlight Track Log ✈ N45LL ✈ 28-Jul-2013 ✈ KGKT - KAMG

Flight Track Log - Related Links

Times and Time Zones

All times are in EDT time to prevent confusion due to time zone crossing. See the N45LL flight status page for this flight to view local times or setup timezone preferences in your user account.

Time Position Orientation Groundspeed Altitude Reporting Facility
EDT Latitude Longitude Course Direction KTS MPH feet Rate Location/Type
03:16PM 35.6452 -83.4759 169° South  Level Estimated
03:17PM 35.6097 -83.4671 169° South  Level Estimated
03:18PM 35.5745 -83.4570 167° South  Level FlightAware Approximate
03:19PM 35.5391 -83.4483 141° Southeast  Level Estimated
03:20PM 35.5037 -83.4395 172° South  Level Estimated
03:21PM 35.4683 -83.4304 168° South  Level FlightAware Approximate
03:22PM 35.4329 -83.4213 168° South  Level FlightAware Approximate
03:23PM 35.3975 -83.4122 168° South  Level FlightAware Approximate
03:23PM 35.6633 -83.6553 168° South 133 153 8,200  Level Atlanta Center
03:24PM 35.3622 -83.4031 168° South  Level FlightAware Approximate
03:24PM 35.6258 -83.6506 174° South 145 167 8,100  Level Atlanta Center
03:25PM 35.3203 -83.3925 168° South  Level FlightAware Approximate
03:25PM 35.5986 -83.6378 159° South 145 167 8,200  Level Atlanta Center
03:26PM 35.2849 -83.3837 168° South  Level FlightAware Approximate
03:26PM 35.5653 -83.6278 166° South 145 167 8,200  Level Atlanta Center
03:27PM 35.2495 -83.3748 168° South  Level FlightAware Approximate
03:27PM 35.5381 -83.6175 163° South 119 137 9,000  Level Atlanta Center
03:28PM 35.2140 -83.3660 168° South  Level FlightAware Approximate
03:28PM 35.5069 -83.6103 169° South 119 137 9,100  Level Atlanta Center
03:29PM 35.4714 -83.6053 173° South 119 137 9,100  Level Atlanta Center
03:30PM 35.4378 -83.5953 166° South 125 144 9,100  Level Atlanta Center
03:31PM 35.4067 -83.5903 173° South 125 144 9,100  Level Atlanta Center
03:32PM 35.3711 -83.5828 170° South 125 144 9,100  Level Atlanta Center
03:33PM 35.3378 -83.5831 180° South 125 144 9,200  Climbing Atlanta Center
03:34PM 35.3042 -83.5756 170° South 125 144 9,100 -60 Descending Atlanta Center
03:35PM 35.2689 -83.5681 170° South 125 144 9,100  Level Atlanta Center
03:36PM 35.2333 -83.5608 171° South 125 144 9,100 60 Level Atlanta Center
03:37PM 35.1978 -83.5533 170° South 125 144 9,300 360 Climbing Atlanta Center
03:38PM 35.1686 -83.5433 164° South 118 136 9,900 420 Climbing Atlanta Center
03:39PM 35.1414 -83.5333 163° South 113 130 10,200 60 Climbing Atlanta Center
03:40PM 35.1039 -83.5258 171° South 125 144 10,100 -60 Descending Atlanta Center
03:41PM 35.0661 -83.5161 168° South 130 150 10,100 -60 Level Atlanta Center
03:42PM 35.0286 -83.5111 174° South 135 155 10,000 -60 Descending Atlanta Center
03:43PM 34.9931 -83.5014 167° South 140 161 10,000  Level Atlanta Center
03:44PM 34.9575 -83.4939 170° South 140 161 10,100  Climbing Atlanta Center
03:45PM 34.9222 -83.4942 180° South 135 155 10,100  Level Atlanta Center
03:46PM 34.8867 -83.4817 164° South 135 155 10,100  Level Atlanta Center
03:47PM 34.8511 -83.4819 180° South 135 155 10,100  Level Atlanta Center
03:48PM 34.8156 -83.4694 164° South 135 155 10,100  Level Atlanta Center
03:49PM 34.7822 -83.4597 167° South 135 155 10,100  Level Atlanta Center
03:50PM 34.7467 -83.4497 167° South 129 148 10,100  Level Atlanta Center
03:51PM 34.7069 -83.4425 171° South 135 155 10,100  Level Atlanta Center
03:52PM 34.6736 -83.4325 166° South 135 155 10,200  Climbing Atlanta Center
03:53PM 34.6381 -83.4228 167° South 135 155 10,100  Descending Atlanta Center
03:54PM 34.6003 -83.4156 171° South 135 155 10,200  Climbing Atlanta Center
03:55PM 34.5606 -83.3981 160° South 146 168 10,100 -120 Descending Atlanta Center
03:56PM 34.5231 -83.3858 165° South 146 168 10,000  Descending Atlanta Center
03:57PM 34.4894 -83.3758 166° South 141 162 10,100  Climbing Atlanta Center
03:58PM 34.4539 -83.3636 164° South 135 155 10,100  Level Atlanta Center
03:59PM 34.4164 -83.3539 168° South 135 155 10,200  Climbing Atlanta Center
04:00PM 34.3808 -83.3442 167° South 141 162 10,100 -60 Descending Atlanta Center
04:01PM 34.3453 -83.3319 164° South 141 162 10,100  Level Atlanta Center
04:02PM 34.3097 -83.3219 167° South 141 162 10,200  Climbing Atlanta Center
04:03PM 34.2700 -83.3072 163° South 141 162 10,200 -60 Level Atlanta Center
04:04PM 34.2322 -83.2925 162° South 146 168 10,100  Descending Atlanta Center
04:05PM 34.1925 -83.2778 163° South 146 168 10,200  Climbing Atlanta Center
04:06PM 34.1550 -83.2681 168° South 146 168 10,100 -60 Descending Atlanta Center
04:07PM 34.1131 -83.2533 164° South 146 168 10,100  Level Atlanta Center
04:08PM 34.0797 -83.2411 163° South 141 162 10,100  Level Atlanta Center
04:09PM 34.0378 -83.2317 169° South 154 177 10,100 240 Level Atlanta Center
04:10PM 34.0086 -83.2194 161° South 142 163 10,600 480 Climbing Atlanta Center
04:11PM 33.9772 -83.2122 169° South 121 139 11,100 300 Climbing Atlanta Center
04:12PM 33.9481 -83.2050 168° South 109 125 11,200  Climbing Atlanta Center
04:13PM 33.9125 -83.1953 167° South 127 146 11,100  Descending Atlanta Center
04:14PM 33.8789 -83.1856 166° South 127 146 11,200  Climbing Atlanta Center
04:15PM 33.8433 -83.1783 170° South 127 146 11,200 -60 Level Atlanta Center
04:16PM 33.8100 -83.1636 160° South 127 146 11,100  Descending Atlanta Center
04:17PM 33.7786 -83.1567 170° South 122 140 11,200  Climbing Atlanta Center
04:18PM 33.7389 -83.1444 166° South 132 152 11,200  Level Atlanta Center
04:19PM 33.7011 -83.1350 168° South 132 152 11,200 -60 Level Atlanta Center
04:20PM 33.6656 -83.1228 164° South 132 152 11,100 -60 Descending Atlanta Center
04:21PM 33.6300 -83.1131 167° South 132 152 11,100  Level Atlanta Center
04:22PM 33.5967 -83.1036 167° South 127 146 11,100  Level Atlanta Center
04:23PM 33.5589 -83.0939 168° South 127 146 11,100 -60 Level Atlanta Center
04:24PM 33.5275 -83.0844 166° South 127 146 11,000 -60 Descending Atlanta Center
04:25PM 33.4942 -83.0747 166° South 122 140 11,000  Level Atlanta Center
04:26PM 33.4586 -83.0653 168° South 128 147 11,000  Level Atlanta Center
04:27PM 33.4292 -83.0506 157° South 121 139 11,100  Climbing Atlanta Center
04:28PM 33.3956 -83.0411 167° South 126 145 11,100  Level Atlanta Center
04:29PM 33.3600 -83.0317 167° South 121 139 11,100 -60 Level Atlanta Center
04:30PM 33.3289 -83.0244 169° South 127 146 11,000 -60 Descending Atlanta Center
04:31PM 33.2953 -83.0150 167° South 127 146 11,000  Level Atlanta Center
04:32PM 33.2597 -83.0003 161° South 127 146 11,100  Climbing Atlanta Center
04:33PM 33.2283 -82.9958 173° South 122 140 11,100  Level Atlanta Center
04:34PM 33.1969 -82.9839 162° South 120 138 11,100  Level Atlanta Center
04:35PM 33.1614 -82.9742 167° South 120 138 11,100  Level Atlanta Center
04:36PM 33.1217 -82.9697 175° South 126 145 11,100  Level Atlanta Center
04:37PM 33.0861 -82.9603 167° South 131 151 11,100  Level Atlanta Center
04:38PM 33.0547 -82.9483 162° South 126 145 11,100  Level Atlanta Center
04:39PM 33.0233 -82.9364 162° South 126 145 11,200  Climbing Atlanta Center
04:40PM 32.9878 -82.9244 164° South 126 145 11,100  Descending Atlanta Center
04:41PM 32.9522 -82.9150 167° South 126 145 11,200  Climbing Atlanta Center
04:42PM 32.9208 -82.9078 169° South 126 145 11,200  Level Atlanta Center
04:43PM 32.8872 -82.8936 161° South 126 145 11,200 -60 Level Atlanta Center
04:44PM 32.8517 -82.8842 167° South 126 145 11,100 -60 Descending Atlanta Center
04:45PM 32.8161 -82.8772 171° South 126 145 11,100  Level Atlanta Center
04:46PM 32.7825 -82.8653 163° South 126 145 11,200  Climbing Atlanta Center
04:47PM 32.7492 -82.8558 167° South 126 145 11,100 -60 Descending Atlanta Center
04:48PM 32.7094 -82.8464 169° South 126 145 11,100 -60 Level Atlanta Center
04:50PM 32.6383 -82.8308 170° South 126 145 11,000  Descending Jacksonville Center
04:51PM 32.6050 -82.8211 166° South 126 145 11,100  Climbing Jacksonville Center
04:52PM 32.5694 -82.8111 167° South 126 145 11,100 -60 Level Jacksonville Center
04:53PM 32.5339 -82.7964 161° South 126 145 11,000 -60 Descending Jacksonville Center
04:54PM 32.5006 -82.7939 176° South 126 145 11,000  Level Jacksonville Center
04:55PM 32.4650 -82.7842 167° South 126 145 11,100 60 Climbing Jacksonville Center
04:56PM 32.4317 -82.7744 166° South 126 145 11,200  Climbing Jacksonville Center
04:57PM 32.4025 -82.7647 164° South 126 145 11,200 -120 Level Jacksonville Center
04:58PM 32.3689 -82.7475 157° South 128 147 11,000 -180 Descending Jacksonville Center
04:59PM 32.3333 -82.7353 164° South 128 147 10,900 -120 Descending Jacksonville Center
05:00PM 32.3000 -82.7278 169° South 128 147 10,800 -300 Descending Jacksonville Center
05:01PM 32.2625 -82.7206 171° South 128 147 10,300 -540 Descending Jacksonville Center
05:02PM 32.2269 -82.7133 170° South 128 147 9,800 -540 Descending Jacksonville Center
05:03PM 32.1853 -82.7011 166° South 139 160 9,300 -420 Descending Jacksonville Center
05:04PM 32.1517 -82.6939 170° South 139 160 9,000 -420 Descending Jacksonville Center
05:05PM 32.1164 -82.6817 164° South 139 160 8,500 -540 Descending Jacksonville Center
05:06PM 32.0828 -82.6669 160° South 139 160 8,000 -540 Descending Jacksonville Center
05:07PM 32.0494 -82.6547 163° South 134 154 7,500 -540 Descending Jacksonville Center
05:08PM 32.0117 -82.6403 162° South 134 154 7,000 -420 Descending Jacksonville Center
05:09PM 31.9806 -82.6306 165° South 124 143 6,700 -360 Descending Jacksonville Center
05:10PM 31.9469 -82.6233 170° South 124 143 6,300 -420 Descending Jacksonville Center
05:11PM 31.9136 -82.6111 163° South 124 143 5,900 -480 Descending Jacksonville Center
05:12PM 31.8781 -82.6039 170° South 129 148 5,400 -600 Descending Jacksonville Center
05:13PM 31.8447 -82.5917 163° South 129 148 4,800 -600 Descending Jacksonville Center
05:14PM 31.8111 -82.5819 166° South 124 143 4,300 -360 Descending Jacksonville Center
05:15PM 31.7778 -82.5725 166° South 124 143 4,100 -240 Descending Jacksonville Center
05:16PM 31.7361 -82.5653 172° South 124 143 3,900 -240 Descending Jacksonville Center